Time;durP1;ratioP1;P1;durP2;ratioP2;P2;SDS_P1;SDS_P2;PMS_P1;PMS_P2;Temp;Humidity;BMP_temperature;BMP_pressure;BME280_temperature;BME280_humidity;BME280_pressure;Samples;Min_cycle;Max_cycle;Signal;HPM_P1;HPM_P2
2023/11/07 00:06:55;;;;;;;6.07;1.55;;;;;;;8.59;65.48;99565.28;30967208;28;96766;-75
2023/11/07 00:21:57;;;;;;;4.40;1.90;;;;;;;8.59;65.22;99589.19;30883880;28;124562;-75
2023/11/07 00:36:57;;;;;;;3.80;1.23;;;;;;;8.76;65.27;99592.59;30840618;28;97612;-64
2023/11/07 00:51:59;;;;;;;5.53;1.52;;;;;;;9.02;65.05;99598.59;30840184;28;96655;-64
2023/11/07 01:06:59;;;;;;;3.83;1.57;;;;;;;9.13;64.60;99622.97;30883898;28;97650;-63
2023/11/07 01:22:00;;;;;;;4.72;1.73;;;;;;;9.24;64.68;99629.72;31085359;28;97270;-62
2023/11/07 01:37:00;;;;;;;3.60;1.60;;;;;;;9.22;64.93;99638.88;31086193;28;126855;-62
2023/11/07 01:52:01;;;;;;;3.05;1.65;;;;;;;9.03;66.37;99648.91;31102595;28;126211;-64
2023/11/07 02:07:02;;;;;;;4.40;1.60;;;;;;;8.85;67.38;99653.66;31102789;28;97535;-61
2023/11/07 02:22:08;;;;;;;4.70;1.77;;;;;;;8.92;67.80;99678.53;31101437;28;97507;-67
2023/11/07 02:37:08;;;;;;;4.27;1.40;;;;;;;9.14;68.03;99687.56;31101184;28;97037;-62
2023/11/07 02:52:08;;;;;;;3.67;1.50;;;;;;;9.31;67.94;99680.34;31097551;28;97029;-66
2023/11/07 03:07:09;;;;;;;1.75;1.10;;;;;;;9.44;67.63;99685.91;31097266;28;97023;-67
2023/11/07 03:22:09;;;;;;;2.85;1.30;;;;;;;9.52;67.40;99710.81;31094548;28;126835;-64
2023/11/07 03:37:09;;;;;;;2.40;1.50;;;;;;;9.31;67.09;99714.91;31093315;28;125542;-66
2023/11/07 03:52:10;;;;;;;3.70;1.50;;;;;;;8.76;67.64;99717.44;31089982;28;96744;-66
2023/11/07 04:07:10;;;;;;;1.45;1.00;;;;;;;8.29;68.60;99710.16;31088886;28;125498;-65
2023/11/07 04:22:10;;;;;;;3.42;1.10;;;;;;;7.91;69.49;99720.44;31085970;28;125495;-69
2023/11/07 04:37:11;;;;;;;2.05;1.00;;;;;;;7.54;70.09;99737.63;31085525;28;126827;-65
2023/11/07 04:52:12;;;;;;;2.47;1.90;;;;;;;7.28;70.81;99739.38;31083260;28;96784;-67
2023/11/07 05:07:13;;;;;;;3.15;1.80;;;;;;;7.21;70.81;99764.00;31081898;28;126519;-61
2023/11/07 05:22:13;;;;;;;3.20;1.90;;;;;;;7.25;71.37;99770.66;31079888;28;96633;-65
2023/11/07 05:37:15;;;;;;;2.10;1.58;;;;;;;7.00;71.38;99789.06;31013227;28;125542;-62
2023/11/07 05:52:16;;;;;;;2.07;1.27;;;;;;;6.90;71.94;99799.78;30952444;28;97284;-62
2023/11/07 06:07:16;;;;;;;1.73;1.37;;;;;;;6.84;72.76;99821.56;30952907;28;96744;-61
2023/11/07 06:22:16;;;;;;;2.45;1.40;;;;;;;6.76;72.94;99830.25;30952213;28;125496;-62
2023/11/07 06:37:17;;;;;;;1.83;1.23;;;;;;;7.06;72.81;99838.75;30971557;28;125480;-62
2023/11/07 06:52:17;;;;;;;2.63;1.75;;;;;;;8.09;72.70;99859.09;30968900;28;125435;-63
2023/11/07 07:07:19;;;;;;;2.13;1.25;;;;;;;9.39;71.20;99876.19;30969587;28;124575;-64
2023/11/07 07:22:27;;;;;;;2.55;1.50;;;;;;;10.65;68.12;99882.41;30968964;28;97487;-64
2023/11/07 07:37:28;;;;;;;5.73;1.47;;;;;;;10.94;66.88;99883.50;30966531;28;97196;-62
2023/11/07 07:52:32;;;;;;;4.85;1.20;;;;;;;12.27;65.15;99889.03;30964174;28;96781;-63
2023/11/07 08:07:33;;;;;;;4.20;1.10;;;;;;;16.82;58.81;99906.03;30962686;28;97670;-62
2023/11/07 08:22:33;;;;;;;2.20;0.90;;;;;;;20.99;48.41;99918.28;30962318;28;97487;-62
2023/11/07 08:37:34;;;;;;;2.28;1.00;;;;;;;22.38;41.77;99922.91;30957311;28;126938;-63
2023/11/07 08:52:34;;;;;;;2.25;0.90;;;;;;;17.02;45.45;99908.59;30954431;28;97253;-62
2023/11/07 09:07:35;;;;;;;1.65;0.73;;;;;;;22.12;37.78;99921.78;30956956;28;119959;-62
2023/11/07 09:22:36;;;;;;;1.98;0.70;;;;;;;24.40;33.60;99922.34;30956009;28;96936;-64
2023/11/07 09:37:39;;;;;;;4.23;1.83;;;;;;;28.35;26.02;99926.75;30956332;28;97169;-63
2023/11/07 09:52:44;;;;;;;2.67;0.80;;;;;;;30.58;23.20;99935.31;30954854;28;97213;-63
2023/11/07 10:07:49;;;;;;;2.67;1.40;;;;;;;32.45;20.50;99932.78;30971316;28;96767;-64
2023/11/07 10:22:49;;;;;;;1.17;0.80;;;;;;;32.68;19.81;99907.78;30973725;28;97569;-63
2023/11/07 10:37:51;;;;;;;2.67;0.57;;;;;;;34.18;18.17;99908.84;30972646;28;97034;-62
2023/11/07 10:52:51;;;;;;;1.03;0.40;;;;;;;35.41;16.45;99895.47;30969941;28;97573;-63
2023/11/07 11:07:54;;;;;;;4.20;0.82;;;;;;;33.49;17.30;99886.81;30966774;28;124628;-63
2023/11/07 11:23:19;;;;;;;2.30;0.70;;;;;;;32.61;16.88;99886.19;30966658;28;97707;-62
2023/11/07 11:38:20;;;;;;;1.73;0.60;;;;;;;33.55;17.19;99868.91;30964426;28;96766;-67
2023/11/07 11:53:33;;;;;;;10.57;5.93;;;;;;;35.04;15.67;99880.78;30964094;28;123238;-63
2023/11/07 12:08:35;;;;;;;2.70;1.23;;;;;;;35.32;15.02;99867.13;30965034;28;96734;-65
2023/11/07 12:23:36;;;;;;;2.67;0.80;;;;;;;30.15;18.86;99862.34;30961838;28;97083;-63
2023/11/07 12:38:37;;;;;;;2.15;1.17;;;;;;;20.83;28.08;99854.97;30958590;28;97433;-64
2023/11/07 12:53:48;;;;;;;3.40;0.80;;;;;;;20.91;28.10;99859.97;30958397;28;97548;-63
2023/11/07 13:08:48;;;;;;;1.23;0.67;;;;;;;23.93;25.91;99837.88;30957311;28;96647;-62
2023/11/07 13:23:49;;;;;;;2.43;0.97;;;;;;;16.47;35.12;99851.88;30956170;28;126705;-62
2023/11/07 13:38:49;;;;;;;3.03;1.00;;;;;;;19.87;32.34;99850.25;30968020;28;97118;-62
2023/11/07 13:53:50;;;;;;;2.15;1.00;;;;;;;17.51;34.42;99838.75;30974865;28;96670;-61
2023/11/07 14:08:50;;;;;;;2.57;1.30;;;;;;;19.01;32.64;99834.59;30972584;28;97492;-62
2023/11/07 14:23:52;;;;;;;3.00;1.30;;;;;;;14.62;40.04;99829.69;30971876;28;125316;-63
2023/11/07 14:38:52;;;;;;;6.60;2.23;;;;;;;14.68;41.43;99835.06;30971699;28;96750;-62
2023/11/07 14:53:53;;;;;;;9.02;3.80;;;;;;;13.30;43.18;99827.16;30968062;28;125081;-64
2023/11/07 15:08:53;;;;;;;12.88;4.18;;;;;;;12.10;45.96;99827.03;30968357;28;97448;-62
2023/11/07 15:23:53;;;;;;;9.77;3.88;;;;;;;11.33;48.53;99826.44;30967381;28;97502;-62
2023/11/07 15:38:54;;;;;;;9.95;3.60;;;;;;;10.89;50.88;99832.59;30965797;28;125284;-62
2023/11/07 15:53:54;;;;;;;9.90;3.53;;;;;;;10.79;52.42;99841.66;30963416;28;126564;-66
2023/11/07 16:08:54;;;;;;;9.98;3.40;;;;;;;10.76;52.99;99836.69;30964404;28;109921;-64
2023/11/07 16:23:56;;;;;;;10.37;4.13;;;;;;;10.61;53.36;99826.00;30960621;28;97492;-63
2023/11/07 16:38:56;;;;;;;6.97;3.33;;;;;;;10.57;54.31;99842.53;30953325;28;97281;-61
2023/11/07 16:53:57;;;;;;;7.15;3.10;;;;;;;10.56;54.36;99838.19;30951206;28;125633;-61
2023/11/07 17:08:58;;;;;;;10.23;4.27;;;;;;;10.42;55.68;99829.97;30949783;28;97532;-61
2023/11/07 17:23:58;;;;;;;14.43;4.70;;;;;;;10.38;55.88;99825.19;30948081;28;124400;-61
2023/11/07 17:38:58;;;;;;;12.27;6.00;;;;;;;10.23;56.18;99823.25;30945201;28;126589;-61
2023/11/07 17:53:58;;;;;;;16.70;6.50;;;;;;;9.79;57.31;99819.34;30944139;28;125581;-61
2023/11/07 18:09:00;;;;;;;18.38;9.45;;;;;;;9.46;58.27;99803.56;30941761;28;125772;-62
2023/11/07 18:24:03;;;;;;;17.87;9.27;;;;;;;9.11;59.18;99797.69;30951162;28;97130;-61
2023/11/07 18:39:03;;;;;;;15.73;9.30;;;;;;;8.83;59.69;99818.50;30884485;28;97275;-61
2023/11/07 18:54:04;;;;;;;15.77;8.20;;;;;;;8.79;60.85;99825.16;30843807;28;97447;-62
2023/11/07 19:09:04;;;;;;;17.23;7.55;;;;;;;8.87;61.13;99819.84;30846602;28;97922;-62
2023/11/07 19:24:05;;;;;;;10.65;6.25;;;;;;;8.94;61.38;99825.31;30843324;28;97750;-61
2023/11/07 19:39:05;;;;;;;9.15;5.05;;;;;;;9.09;61.55;99820.09;30922945;28;96778;-62
2023/11/07 19:54:05;;;;;;;8.85;4.70;;;;;;;9.22;61.41;99828.38;30958971;28;108646;-60
2023/11/07 20:09:06;;;;;;;7.10;3.58;;;;;;;9.31;60.99;99831.88;30956404;28;125285;-62
2023/11/07 20:24:07;;;;;;;9.38;4.65;;;;;;;9.22;61.20;99823.06;30957332;28;97363;-61
2023/11/07 20:39:08;;;;;;;10.73;5.70;;;;;;;9.10;61.22;99830.59;30955472;28;96724;-61
2023/11/07 20:54:08;;;;;;;11.73;5.60;;;;;;;8.99;61.41;99822.94;30952967;28;96715;-62
2023/11/07 21:09:09;;;;;;;11.65;5.57;;;;;;;8.83;62.32;99810.53;30953524;28;96739;-61
2023/11/07 21:24:09;;;;;;;12.55;6.28;;;;;;;8.84;62.25;99803.41;30950885;28;126687;-63
2023/11/07 21:39:11;;;;;;;15.23;5.50;;;;;;;8.93;62.66;99791.75;30950154;28;97290;-61
2023/11/07 21:54:11;;;;;;;10.27;5.00;;;;;;;8.85;62.72;99799.75;30944816;28;97164;-61
2023/11/07 22:09:12;;;;;;;12.77;4.88;;;;;;;8.54;62.72;99803.91;30961038;28;125241;-62
2023/11/07 22:24:12;;;;;;;9.77;4.95;;;;;;;8.50;63.53;99807.06;30965587;28;125655;-62
2023/11/07 22:39:13;;;;;;;11.63;6.68;;;;;;;8.65;63.58;99797.44;30968049;28;126322;-61
2023/11/07 22:54:13;;;;;;;12.07;5.83;;;;;;;8.26;63.35;99812.16;30966529;28;97183;-62
2023/11/07 23:09:15;;;;;;;10.43;4.97;;;;;;;7.78;64.75;99801.31;30965105;28;125461;-61
2023/11/07 23:24:16;;;;;;;8.23;4.57;;;;;;;7.44;65.15;99802.19;30958448;28;98146;-61
2023/11/07 23:39:16;;;;;;;8.98;3.72;;;;;;;7.21;66.05;99801.09;30916775;28;126624;-61
2023/11/07 23:54:16;;;;;;;10.55;3.90;;;;;;;7.03;66.12;99804.63;30969435;28;97084;-61
